Date,TemperatureHighF,TemperatureAvgF,TemperatureLowF,DewpointHighF,DewpointAvgF,DewpointLowF,HumidityHigh,HumidityAvg,HumidityLow,PressureMaxIn,PressureMinIn,WindSpeedMaxMPH,WindSpeedAvgMPH,GustSpeedMaxMPH,PrecipitationSumIn
2013-7-1,85,69,57,55,48,43,78,51,24,30.19,30.14,12,2,16,0.00
2013-7-2,86,69,59,55,48,37,84,54,19,30.16,30.08,12,2,12,0.00
2013-7-3,87,70,58,55,49,42,83,52,22,30.11,29.99,10,1,10,0.00
2013-7-4,88,74,61,53,49,45,71,46,24,30.05,29.96,21,4,21,0.00
2013-7-5,90,75,63,53,51,49,68,47,26,30.02,29.93,22,6,23,0.00
2013-7-6,93,72,67,56,54,52,67,55,26,29.96,29.90,11,4,13,0.00
2013-7-7,80,72,71,60,59,58,68,64,47,29.96,29.90,10,2,17,0.00
2013-7-8,78,71,69,73,66,-100,94,89,43,30.02,29.90,10,0,17,0.16
2013-7-9,84,75,69,74,66,61,94,76,56,29.99,29.90,23,2,23,0.63
2013-7-10,85,70,64,61,50,-100,81,55,26,30.08,29.93,8,2,19,0.04
2013-7-11,87,70,58,62,51,44,90,58,25,30.16,30.05,9,2,9,0.00
2013-7-12,86,67,64,53,52,50,66,58,30,30.11,30.02,10,3,14,0.00
2013-7-13,73,65,62,61,56,48,93,74,45,30.19,30.02,23,5,23,0.24
2013-7-14,79,67,64,59,57,55,76,70,50,30.22,30.11,10,1,10,0.12
2013-7-15,88,69,64,64,58,56,83,70,39,30.28,30.22,4,0,6,0.00
2013-7-16,88,75,72,69,66,60,84,73,39,30.28,30.22,9,1,9,0.00
2013-7-17,97,75,72,70,66,56,87,76,26,30.31,30.25,0,0,0,0.00
2013-7-18,78,75,72,65,64,63,78,70,63,30.19,30.14,6,1,6,0.00
2013-7-19,87,75,69,64,60,52,69,61,30,29.93,29.84,5,1,5,0.00
2013-7-20,73,66,63,59,54,-100,82,70,55,29.96,29.93,0,0,0,0.00
2013-7-21,82,69,64,68,60,57,90,73,47,29.96,29.84,10,1,10,1.14
2013-7-22,86,70,64,72,62,55,94,75,42,29.90,29.66,14,2,14,0.43
2013-7-23,80,66,60,56,50,42,82,60,29,30.05,29.84,8,1,8,0.43
2013-7-24,80,66,54,56,49,44,92,60,30,30.14,30.05,6,0,6,0.00
2013-7-25,75,63,59,63,57,52,94,81,50,30.05,29.99,8,1,8,0.59
2013-7-26,72,66,62,64,60,44,94,84,42,30.05,29.96,10,1,10,0.59
2013-7-27,66,56,49,47,42,36,83,61,34,30.11,29.99,9,3,9,0.00
2013-7-28,72,59,49,50,43,39,79,58,33,30.08,29.99,6,2,6,0.00
2013-7-29,78,62,50,53,47,43,92,64,31,30.16,30.08,4,0,5,0.00
2013-7-30,73,65,61,59,53,48,78,65,54,30.14,30.08,6,0,6,0.00
2013-7-31,73,66,63,64,59,49,92,81,44,30.14,30.05,4,0,4,0.00